sensor_id;sensor_type;location;lat;lon;timestamp;pressure;altitude;pressure_sealevel;temperature;humidity
70411;BME280;57832;46.038;11.398;2022-10-10T00:00:44;97473.09;;;10.74;100.00
70411;BME280;57832;46.038;11.398;2022-10-10T00:03:10;97466.72;;;10.46;100.00
70411;BME280;57832;46.038;11.398;2022-10-10T00:05:37;97468.97;;;11.01;100.00
70411;BME280;57832;46.038;11.398;2022-10-10T00:08:03;97463.81;;;11.07;100.00
70411;BME280;57832;46.038;11.398;2022-10-10T00:10:29;97462.03;;;10.83;100.00
70411;BME280;57832;46.038;11.398;2022-10-10T00:12:55;97465.94;;;10.45;100.00
70411;BME280;57832;46.038;11.398;2022-10-10T00:15:20;97463.31;;;9.91;100.00
70411;BME280;57832;46.038;11.398;2022-10-10T00:17:46;97472.13;;;10.09;100.00
70411;BME280;57832;46.038;11.398;2022-10-10T00:20:14;97470.84;;;10.42;100.00
70411;BME280;57832;46.038;11.398;2022-10-10T00:22:40;97466.38;;;10.42;100.00
70411;BME280;57832;46.038;11.398;2022-10-10T00:25:07;97467.59;;;9.74;100.00
70411;BME280;57832;46.038;11.398;2022-10-10T00:27:33;97467.28;;;9.82;100.00
70411;BME280;57832;46.038;11.398;2022-10-10T00:29:59;97465.00;;;10.51;100.00
70411;BME280;57832;46.038;11.398;2022-10-10T00:32:25;97460.81;;;9.96;100.00
70411;BME280;57832;46.038;11.398;2022-10-10T00:34:51;97469.06;;;9.69;100.00
70411;BME280;57832;46.038;11.398;2022-10-10T00:37:16;97463.00;;;9.99;100.00
70411;BME280;57832;46.038;11.398;2022-10-10T00:39:42;97464.97;;;10.16;100.00
70411;BME280;57832;46.038;11.398;2022-10-10T00:42:15;97465.44;;;9.70;100.00
70411;BME280;57832;46.038;11.398;2022-10-10T00:44:42;97463.66;;;9.83;100.00
70411;BME280;57832;46.038;11.398;2022-10-10T00:47:07;97462.25;;;9.68;100.00
70411;BME280;57832;46.038;11.398;2022-10-10T00:49:35;97460.91;;;9.47;100.00
70411;BME280;57832;46.038;11.398;2022-10-10T00:52:02;97464.28;;;9.66;100.00
70411;BME280;57832;46.038;11.398;2022-10-10T00:54:31;97455.06;;;9.64;100.00
70411;BME280;57832;46.038;11.398;2022-10-10T00:57:08;97459.97;;;10.14;100.00
70411;BME280;57832;46.038;11.398;2022-10-10T00:59:37;97461.88;;;10.07;100.00
70411;BME280;57832;46.038;11.398;2022-10-10T01:02:03;97448.31;;;10.22;100.00
70411;BME280;57832;46.038;11.398;2022-10-10T01:04:38;97447.53;;;10.33;100.00
70411;BME280;57832;46.038;11.398;2022-10-10T01:07:13;97441.28;;;10.58;100.00
70411;BME280;57832;46.038;11.398;2022-10-10T01:09:42;97443.34;;;10.56;100.00
70411;BME280;57832;46.038;11.398;2022-10-10T01:17:51;97434.81;;;9.83;100.00
70411;BME280;57832;46.038;11.398;2022-10-10T01:28:47;97441.16;;;10.77;100.00
70411;BME280;57832;46.038;11.398;2022-10-10T01:31:15;97431.72;;;10.64;100.00
70411;BME280;57832;46.038;11.398;2022-10-10T01:36:44;97432.00;;;10.91;100.00
70411;BME280;57832;46.038;11.398;2022-10-10T01:41:59;97428.13;;;10.82;100.00
70411;BME280;57832;46.038;11.398;2022-10-10T01:44:27;97431.44;;;10.06;100.00
70411;BME280;57832;46.038;11.398;2022-10-10T01:46:53;97436.50;;;10.43;100.00
70411;BME280;57832;46.038;11.398;2022-10-10T01:49:20;97430.59;;;10.48;100.00
70411;BME280;57832;46.038;11.398;2022-10-10T01:54:51;97436.94;;;10.76;100.00
70411;BME280;57832;46.038;11.398;2022-10-10T02:00:13;97429.50;;;10.84;100.00
70411;BME280;57832;46.038;11.398;2022-10-10T02:03:10;97424.72;;;10.10;100.00
70411;BME280;57832;46.038;11.398;2022-10-10T02:10:49;97433.06;;;9.53;100.00
70411;BME280;57832;46.038;11.398;2022-10-10T02:13:16;97437.00;;;9.44;100.00
70411;BME280;57832;46.038;11.398;2022-10-10T02:15:47;97432.88;;;9.78;100.00
70411;BME280;57832;46.038;11.398;2022-10-10T02:18:19;97431.81;;;9.67;100.00
70411;BME280;57832;46.038;11.398;2022-10-10T02:20:44;97436.38;;;9.60;100.00
70411;BME280;57832;46.038;11.398;2022-10-10T02:23:14;97426.34;;;9.57;100.00
70411;BME280;57832;46.038;11.398;2022-10-10T02:25:42;97423.03;;;10.04;100.00
70411;BME280;57832;46.038;11.398;2022-10-10T02:28:40;97410.25;;;10.31;100.00
70411;BME280;57832;46.038;11.398;2022-10-10T02:31:14;97410.59;;;10.23;100.00
70411;BME280;57832;46.038;11.398;2022-10-10T02:33:45;97416.53;;;9.52;100.00
70411;BME280;57832;46.038;11.398;2022-10-10T02:36:13;97416.38;;;9.47;100.00
70411;BME280;57832;46.038;11.398;2022-10-10T02:38:41;97424.66;;;9.63;100.00
70411;BME280;57832;46.038;11.398;2022-10-10T02:41:11;97418.38;;;9.64;100.00
70411;BME280;57832;46.038;11.398;2022-10-10T02:43:38;97416.44;;;10.25;100.00
70411;BME280;57832;46.038;11.398;2022-10-10T02:46:07;97407.91;;;10.42;100.00
70411;BME280;57832;46.038;11.398;2022-10-10T02:48:34;97403.03;;;9.79;100.00
70411;BME280;57832;46.038;11.398;2022-10-10T02:51:00;97405.22;;;9.40;100.00
70411;BME280;57832;46.038;11.398;2022-10-10T02:53:25;97407.63;;;9.42;100.00
70411;BME280;57832;46.038;11.398;2022-10-10T02:55:51;97411.03;;;9.42;100.00
70411;BME280;57832;46.038;11.398;2022-10-10T02:58:16;97423.22;;;9.48;100.00
70411;BME280;57832;46.038;11.398;2022-10-10T03:00:42;97418.81;;;10.15;100.00
70411;BME280;57832;46.038;11.398;2022-10-10T03:03:08;97423.47;;;9.89;100.00
70411;BME280;57832;46.038;11.398;2022-10-10T03:05:33;97414.13;;;10.17;100.00
70411;BME280;57832;46.038;11.398;2022-10-10T03:07:59;97418.50;;;9.57;100.00
70411;BME280;57832;46.038;11.398;2022-10-10T03:10:24;97413.34;;;9.50;100.00
70411;BME280;57832;46.038;11.398;2022-10-10T03:12:50;97411.44;;;9.27;100.00
70411;BME280;57832;46.038;11.398;2022-10-10T03:15:16;97410.88;;;9.25;100.00
70411;BME280;57832;46.038;11.398;2022-10-10T03:17:41;97408.38;;;9.30;100.00
70411;BME280;57832;46.038;11.398;2022-10-10T03:20:07;97412.44;;;9.26;100.00
70411;BME280;57832;46.038;11.398;2022-10-10T03:22:33;97418.22;;;9.16;100.00
70411;BME280;57832;46.038;11.398;2022-10-10T03:24:58;97414.59;;;9.17;100.00
70411;BME280;57832;46.038;11.398;2022-10-10T03:27:24;97411.03;;;9.42;100.00
70411;BME280;57832;46.038;11.398;2022-10-10T03:29:49;97408.97;;;9.75;100.00
70411;BME280;57832;46.038;11.398;2022-10-10T03:32:15;97410.94;;;9.49;100.00
70411;BME280;57832;46.038;11.398;2022-10-10T03:34:40;97416.72;;;9.39;100.00
70411;BME280;57832;46.038;11.398;2022-10-10T03:37:06;97414.44;;;9.73;100.00
70411;BME280;57832;46.038;11.398;2022-10-10T03:39:31;97407.97;;;9.45;100.00
70411;BME280;57832;46.038;11.398;2022-10-10T03:41:57;97407.81;;;9.70;100.00
70411;BME280;57832;46.038;11.398;2022-10-10T03:44:23;97410.22;;;9.84;100.00
70411;BME280;57832;46.038;11.398;2022-10-10T03:46:48;97403.63;;;9.81;100.00
70411;BME280;57832;46.038;11.398;2022-10-10T03:49:14;97405.69;;;10.03;100.00
70411;BME280;57832;46.038;11.398;2022-10-10T03:51:39;97404.19;;;9.95;100.00
70411;BME280;57832;46.038;11.398;2022-10-10T03:54:05;97401.34;;;9.85;100.00
70411;BME280;57832;46.038;11.398;2022-10-10T03:56:31;97401.34;;;9.73;100.00
70411;BME280;57832;46.038;11.398;2022-10-10T03:58:56;97402.91;;;9.74;100.00
70411;BME280;57832;46.038;11.398;2022-10-10T04:01:26;97409.91;;;9.92;100.00
70411;BME280;57832;46.038;11.398;2022-10-10T04:03:51;97399.78;;;9.96;100.00
70411;BME280;57832;46.038;11.398;2022-10-10T04:06:17;97411.25;;;9.83;100.00
70411;BME280;57832;46.038;11.398;2022-10-10T04:08:43;97406.16;;;10.00;100.00
70411;BME280;57832;46.038;11.398;2022-10-10T04:11:08;97408.50;;;9.78;100.00
70411;BME280;57832;46.038;11.398;2022-10-10T04:13:34;97410.31;;;9.35;100.00
70411;BME280;57832;46.038;11.398;2022-10-10T04:15:59;97416.59;;;9.76;100.00
70411;BME280;57832;46.038;11.398;2022-10-10T04:18:25;97412.31;;;9.51;100.00
70411;BME280;57832;46.038;11.398;2022-10-10T04:20:51;97418.75;;;9.37;100.00
70411;BME280;57832;46.038;11.398;2022-10-10T04:23:17;97425.28;;;9.16;100.00
70411;BME280;57832;46.038;11.398;2022-10-10T04:25:42;97427.44;;;9.19;100.00
70411;BME280;57832;46.038;11.398;2022-10-10T04:28:13;97422.56;;;9.23;100.00
70411;BME280;57832;46.038;11.398;2022-10-10T04:30:38;97426.22;;;9.22;100.00
70411;BME280;57832;46.038;11.398;2022-10-10T04:33:04;97434.47;;;9.79;100.00
70411;BME280;57832;46.038;11.398;2022-10-10T04:35:29;97419.09;;;9.71;100.00
70411;BME280;57832;46.038;11.398;2022-10-10T04:37:55;97426.63;;;9.91;100.00
70411;BME280;57832;46.038;11.398;2022-10-10T04:40:20;97426.75;;;9.96;100.00
70411;BME280;57832;46.038;11.398;2022-10-10T04:42:46;97419.28;;;10.12;100.00
70411;BME280;57832;46.038;11.398;2022-10-10T04:45:12;97419.16;;;10.07;100.00
70411;BME280;57832;46.038;11.398;2022-10-10T04:47:37;97414.81;;;10.24;100.00
70411;BME280;57832;46.038;11.398;2022-10-10T04:50:03;97415.28;;;10.21;100.00
70411;BME280;57832;46.038;11.398;2022-10-10T04:52:29;97418.66;;;9.98;100.00
70411;BME280;57832;46.038;11.398;2022-10-10T04:54:54;97416.88;;;9.56;100.00
70411;BME280;57832;46.038;11.398;2022-10-10T04:57:20;97427.06;;;9.76;100.00
70411;BME280;57832;46.038;11.398;2022-10-10T04:59:45;97422.72;;;9.70;100.00
70411;BME280;57832;46.038;11.398;2022-10-10T05:02:11;97418.53;;;9.81;100.00
70411;BME280;57832;46.038;11.398;2022-10-10T05:04:36;97424.09;;;9.73;100.00
70411;BME280;57832;46.038;11.398;2022-10-10T05:07:02;97415.25;;;9.43;100.00
70411;BME280;57832;46.038;11.398;2022-10-10T05:09:27;97425.00;;;9.06;100.00
70411;BME280;57832;46.038;11.398;2022-10-10T05:11:53;97429.88;;;8.83;100.00
70411;BME280;57832;46.038;11.398;2022-10-10T05:14:18;97427.03;;;8.85;100.00
70411;BME280;57832;46.038;11.398;2022-10-10T05:16:44;97427.78;;;9.41;100.00
70411;BME280;57832;46.038;11.398;2022-10-10T05:19:09;97421.28;;;9.44;100.00
70411;BME280;57832;46.038;11.398;2022-10-10T05:21:35;97418.25;;;9.59;100.00
70411;BME280;57832;46.038;11.398;2022-10-10T05:24:01;97415.34;;;9.79;100.00
70411;BME280;57832;46.038;11.398;2022-10-10T05:26:26;97409.16;;;9.61;100.00
70411;BME280;57832;46.038;11.398;2022-10-10T05:28:52;97411.72;;;9.80;100.00
70411;BME280;57832;46.038;11.398;2022-10-10T05:31:19;97425.56;;;9.38;100.00
70411;BME280;57832;46.038;11.398;2022-10-10T05:33:44;97422.22;;;9.49;100.00
70411;BME280;57832;46.038;11.398;2022-10-10T05:36:12;97420.94;;;9.82;100.00
70411;BME280;57832;46.038;11.398;2022-10-10T05:38:38;97413.84;;;9.71;100.00
70411;BME280;57832;46.038;11.398;2022-10-10T05:41:05;97417.19;;;9.90;100.00
70411;BME280;57832;46.038;11.398;2022-10-10T05:43:31;97416.38;;;9.90;100.00
70411;BME280;57832;46.038;11.398;2022-10-10T05:45:56;97415.28;;;9.55;100.00
70411;BME280;57832;46.038;11.398;2022-10-10T05:48:22;97422.41;;;9.36;100.00
70411;BME280;57832;46.038;11.398;2022-10-10T05:50:50;97436.19;;;8.94;100.00
70411;BME280;57832;46.038;11.398;2022-10-10T05:53:17;97433.38;;;9.26;100.00
70411;BME280;57832;46.038;11.398;2022-10-10T05:55:43;97435.56;;;9.60;100.00
70411;BME280;57832;46.038;11.398;2022-10-10T05:58:12;97435.41;;;9.85;100.00
70411;BME280;57832;46.038;11.398;2022-10-10T06:00:38;97439.38;;;9.87;100.00
70411;BME280;57832;46.038;11.398;2022-10-10T06:03:09;97434.03;;;9.94;100.00
70411;BME280;57832;46.038;11.398;2022-10-10T06:05:39;97433.03;;;9.95;100.00
70411;BME280;57832;46.038;11.398;2022-10-10T06:08:05;97424.16;;;10.08;100.00
70411;BME280;57832;46.038;11.398;2022-10-10T06:10:39;97432.69;;;10.03;100.00
70411;BME280;57832;46.038;11.398;2022-10-10T06:13:05;97432.16;;;10.13;100.00
70411;BME280;57832;46.038;11.398;2022-10-10T06:15:30;97439.88;;;9.24;100.00
70411;BME280;57832;46.038;11.398;2022-10-10T06:17:56;97443.56;;;9.77;100.00
70411;BME280;57832;46.038;11.398;2022-10-10T06:20:21;97447.69;;;9.84;100.00
70411;BME280;57832;46.038;11.398;2022-10-10T06:22:47;97441.50;;;10.09;100.00
70411;BME280;57832;46.038;11.398;2022-10-10T06:25:13;97446.78;;;9.79;100.00
70411;BME280;57832;46.038;11.398;2022-10-10T06:27:39;97443.22;;;9.61;100.00
70411;BME280;57832;46.038;11.398;2022-10-10T06:30:05;97457.06;;;9.92;100.00
70411;BME280;57832;46.038;11.398;2022-10-10T06:32:30;97454.13;;;10.12;100.00
70411;BME280;57832;46.038;11.398;2022-10-10T06:34:56;97454.28;;;9.75;100.00
70411;BME280;57832;46.038;11.398;2022-10-10T06:37:21;97460.53;;;10.16;100.00
70411;BME280;57832;46.038;11.398;2022-10-10T06:39:47;97451.50;;;10.00;100.00
70411;BME280;57832;46.038;11.398;2022-10-10T06:42:12;97455.16;;;10.23;100.00
70411;BME280;57832;46.038;11.398;2022-10-10T06:44:38;97457.59;;;10.36;100.00
70411;BME280;57832;46.038;11.398;2022-10-10T06:47:03;97451.69;;;10.53;100.00
70411;BME280;57832;46.038;11.398;2022-10-10T06:49:29;97446.88;;;10.74;100.00
70411;BME280;57832;46.038;11.398;2022-10-10T06:51:54;97450.28;;;10.74;100.00
70411;BME280;57832;46.038;11.398;2022-10-10T06:54:20;97461.44;;;10.22;100.00
70411;BME280;57832;46.038;11.398;2022-10-10T06:56:45;97469.34;;;10.58;100.00
70411;BME280;57832;46.038;11.398;2022-10-10T06:59:11;97475.25;;;10.77;100.00
70411;BME280;57832;46.038;11.398;2022-10-10T07:01:37;97469.97;;;11.00;100.00
70411;BME280;57832;46.038;11.398;2022-10-10T07:04:03;97463.41;;;11.27;100.00
70411;BME280;57832;46.038;11.398;2022-10-10T07:06:29;97464.75;;;11.41;100.00
70411;BME280;57832;46.038;11.398;2022-10-10T07:08:55;97469.28;;;11.17;100.00
70411;BME280;57832;46.038;11.398;2022-10-10T07:11:22;97481.38;;;11.47;100.00
70411;BME280;57832;46.038;11.398;2022-10-10T07:13:48;97475.63;;;11.33;100.00
70411;BME280;57832;46.038;11.398;2022-10-10T07:16:16;97476.72;;;10.96;100.00
70411;BME280;57832;46.038;11.398;2022-10-10T07:18:42;97473.47;;;11.59;100.00
70411;BME280;57832;46.038;11.398;2022-10-10T07:21:08;97477.66;;;11.71;100.00
70411;BME280;57832;46.038;11.398;2022-10-10T07:23:34;97473.28;;;11.77;100.00
70411;BME280;57832;46.038;11.398;2022-10-10T07:26:03;97473.75;;;11.91;100.00
70411;BME280;57832;46.038;11.398;2022-10-10T07:28:29;97471.25;;;11.96;100.00
70411;BME280;57832;46.038;11.398;2022-10-10T07:31:03;97461.94;;;12.06;100.00
70411;BME280;57832;46.038;11.398;2022-10-10T07:33:39;97469.72;;;12.51;100.00
70411;BME280;57832;46.038;11.398;2022-10-10T07:36:06;97481.16;;;12.40;100.00
70411;BME280;57832;46.038;11.398;2022-10-10T07:38:33;97471.28;;;12.86;100.00
70411;BME280;57832;46.038;11.398;2022-10-10T07:40:58;97476.28;;;12.88;100.00
70411;BME280;57832;46.038;11.398;2022-10-10T07:43:24;97484.44;;;13.09;100.00
70411;BME280;57832;46.038;11.398;2022-10-10T07:45:50;97472.06;;;12.87;100.00
70411;BME280;57832;46.038;11.398;2022-10-10T07:48:15;97483.78;;;12.40;100.00
70411;BME280;57832;46.038;11.398;2022-10-10T07:50:42;97485.66;;;12.45;100.00
70411;BME280;57832;46.038;11.398;2022-10-10T07:53:08;97489.03;;;12.40;100.00
70411;BME280;57832;46.038;11.398;2022-10-10T07:55:36;97489.34;;;12.44;100.00
70411;BME280;57832;46.038;11.398;2022-10-10T07:58:02;97482.81;;;12.46;100.00
70411;BME280;57832;46.038;11.398;2022-10-10T08:00:28;97483.50;;;12.76;100.00
70411;BME280;57832;46.038;11.398;2022-10-10T08:02:54;97466.75;;;13.48;100.00
70411;BME280;57832;46.038;11.398;2022-10-10T08:05:20;97470.31;;;13.64;100.00
70411;BME280;57832;46.038;11.398;2022-10-10T08:07:45;97468.03;;;13.46;100.00
70411;BME280;57832;46.038;11.398;2022-10-10T08:10:11;97469.00;;;13.89;100.00
70411;BME280;57832;46.038;11.398;2022-10-10T08:12:37;97455.50;;;14.18;100.00
70411;BME280;57832;46.038;11.398;2022-10-10T08:15:04;97464.78;;;14.26;100.00
70411;BME280;57832;46.038;11.398;2022-10-10T08:17:30;97461.44;;;14.03;100.00
70411;BME280;57832;46.038;11.398;2022-10-10T08:19:55;97460.63;;;14.35;100.00
70411;BME280;57832;46.038;11.398;2022-10-10T08:22:21;97461.53;;;13.81;100.00
70411;BME280;57832;46.038;11.398;2022-10-10T08:24:46;97467.41;;;13.88;100.00
70411;BME280;57832;46.038;11.398;2022-10-10T08:27:12;97456.34;;;14.24;100.00
70411;BME280;57832;46.038;11.398;2022-10-10T08:29:40;97462.06;;;13.83;100.00
70411;BME280;57832;46.038;11.398;2022-10-10T08:32:05;97449.13;;;14.14;100.00
70411;BME280;57832;46.038;11.398;2022-10-10T08:34:31;97452.06;;;14.17;100.00
70411;BME280;57832;46.038;11.398;2022-10-10T08:36:56;97438.09;;;14.22;100.00
70411;BME280;57832;46.038;11.398;2022-10-10T08:39:22;97441.38;;;14.72;100.00
70411;BME280;57832;46.038;11.398;2022-10-10T08:41:51;97435.28;;;14.66;100.00
70411;BME280;57832;46.038;11.398;2022-10-10T08:46:53;97429.13;;;15.19;100.00
70411;BME280;57832;46.038;11.398;2022-10-10T08:49:45;97439.22;;;15.32;100.00
70411;BME280;57832;46.038;11.398;2022-10-10T08:54:59;97440.75;;;15.18;100.00
70411;BME280;57832;46.038;11.398;2022-10-10T08:57:35;97429.34;;;15.02;100.00
70411;BME280;57832;46.038;11.398;2022-10-10T09:00:07;97436.22;;;14.55;100.00
70411;BME280;57832;46.038;11.398;2022-10-10T09:02:39;97441.13;;;14.36;100.00
70411;BME280;57832;46.038;11.398;2022-10-10T09:05:13;97441.91;;;14.36;100.00
70411;BME280;57832;46.038;11.398;2022-10-10T09:07:52;97436.38;;;14.33;100.00
70411;BME280;57832;46.038;11.398;2022-10-10T09:10:53;97428.56;;;14.53;100.00
70411;BME280;57832;46.038;11.398;2022-10-10T09:13:41;97425.38;;;14.46;100.00
70411;BME280;57832;46.038;11.398;2022-10-10T09:21:38;97421.88;;;14.83;100.00
70411;BME280;57832;46.038;11.398;2022-10-10T09:24:18;97420.28;;;14.77;100.00
70411;BME280;57832;46.038;11.398;2022-10-10T09:27:28;97411.72;;;15.23;100.00
70411;BME280;57832;46.038;11.398;2022-10-10T09:30:05;97408.63;;;15.57;100.00
70411;BME280;57832;46.038;11.398;2022-10-10T09:32:40;97403.28;;;15.42;100.00
70411;BME280;57832;46.038;11.398;2022-10-10T09:35:20;97400.41;;;15.59;100.00
70411;BME280;57832;46.038;11.398;2022-10-10T09:37:56;97396.97;;;15.48;100.00
70411;BME280;57832;46.038;11.398;2022-10-10T09:40:28;97395.13;;;15.64;100.00
70411;BME280;57832;46.038;11.398;2022-10-10T09:42:55;97394.59;;;15.57;100.00
70411;BME280;57832;46.038;11.398;2022-10-10T09:45:33;97386.97;;;15.91;100.00
70411;BME280;57832;46.038;11.398;2022-10-10T09:48:01;97394.34;;;15.79;100.00
70411;BME280;57832;46.038;11.398;2022-10-10T09:50:26;97393.00;;;15.71;100.00
70411;BME280;57832;46.038;11.398;2022-10-10T09:52:52;97394.06;;;15.75;100.00
70411;BME280;57832;46.038;11.398;2022-10-10T09:55:27;97388.53;;;15.71;100.00
70411;BME280;57832;46.038;11.398;2022-10-10T09:58:00;97389.56;;;15.60;100.00
70411;BME280;57832;46.038;11.398;2022-10-10T10:00:34;97384.75;;;15.21;100.00
70411;BME280;57832;46.038;11.398;2022-10-10T10:03:18;97387.47;;;15.72;100.00
70411;BME280;57832;46.038;11.398;2022-10-10T10:05:52;97376.91;;;15.93;100.00
70411;BME280;57832;46.038;11.398;2022-10-10T10:08:30;97385.38;;;15.95;100.00
70411;BME280;57832;46.038;11.398;2022-10-10T10:10:57;97382.38;;;16.43;100.00
70411;BME280;57832;46.038;11.398;2022-10-10T10:13:25;97380.78;;;16.52;100.00
70411;BME280;57832;46.038;11.398;2022-10-10T10:15:58;97379.31;;;16.91;100.00
70411;BME280;57832;46.038;11.398;2022-10-10T10:18:26;97384.81;;;17.10;100.00
70411;BME280;57832;46.038;11.398;2022-10-10T10:23:41;97377.47;;;17.42;100.00
70411;BME280;57832;46.038;11.398;2022-10-10T10:28:56;97370.25;;;17.08;100.00
70411;BME280;57832;46.038;11.398;2022-10-10T10:39:10;97358.44;;;17.34;100.00
70411;BME280;57832;46.038;11.398;2022-10-10T10:55:38;97357.41;;;17.65;100.00
70411;BME280;57832;46.038;11.398;2022-10-10T11:00:45;97339.25;;;18.12;100.00
70411;BME280;57832;46.038;11.398;2022-10-10T11:09:07;97334.91;;;18.45;100.00
70411;BME280;57832;46.038;11.398;2022-10-10T11:11:51;97334.91;;;18.45;100.00
70411;BME280;57832;46.038;11.398;2022-10-10T11:17:32;97327.25;;;18.63;100.00
70411;BME280;57832;46.038;11.398;2022-10-10T11:22:45;97320.28;;;18.48;100.00
70411;BME280;57832;46.038;11.398;2022-10-10T11:25:18;97320.22;;;18.53;100.00
70411;BME280;57832;46.038;11.398;2022-10-10T11:30:40;97307.91;;;19.38;100.00
70411;BME280;57832;46.038;11.398;2022-10-10T11:35:47;97312.94;;;19.40;100.00
70411;BME280;57832;46.038;11.398;2022-10-10T11:38:25;97303.44;;;19.34;100.00
70411;BME280;57832;46.038;11.398;2022-10-10T11:41:20;97302.06;;;19.36;100.00
70411;BME280;57832;46.038;11.398;2022-10-10T11:49:23;97300.47;;;19.02;100.00
70411;BME280;57832;46.038;11.398;2022-10-10T11:54:27;97295.06;;;19.27;100.00
70411;BME280;57832;46.038;11.398;2022-10-10T11:57:01;97284.00;;;20.27;100.00
70411;BME280;57832;46.038;11.398;2022-10-10T11:59:32;97290.28;;;20.87;100.00
70411;BME280;57832;46.038;11.398;2022-10-10T12:02:03;97284.28;;;20.81;100.00
70411;BME280;57832;46.038;11.398;2022-10-10T12:04:36;97275.03;;;20.51;100.00
70411;BME280;57832;46.038;11.398;2022-10-10T12:07:35;97269.34;;;21.17;100.00
70411;BME280;57832;46.038;11.398;2022-10-10T12:10:34;97267.03;;;21.47;100.00
70411;BME280;57832;46.038;11.398;2022-10-10T12:15:57;97267.84;;;21.79;100.00
70411;BME280;57832;46.038;11.398;2022-10-10T12:18:29;97258.41;;;21.27;100.00
70411;BME280;57832;46.038;11.398;2022-10-10T12:21:16;97259.03;;;20.65;100.00
70411;BME280;57832;46.038;11.398;2022-10-10T12:23:48;97263.00;;;20.40;100.00
70411;BME280;57832;46.038;11.398;2022-10-10T12:26:23;97255.63;;;21.32;100.00
70411;BME280;57832;46.038;11.398;2022-10-10T12:31:31;97258.22;;;20.64;100.00
70411;BME280;57832;46.038;11.398;2022-10-10T12:33:58;97257.97;;;20.24;100.00
70411;BME280;57832;46.038;11.398;2022-10-10T12:44:23;97241.00;;;19.31;100.00
70411;BME280;57832;46.038;11.398;2022-10-10T12:49:57;97242.84;;;18.98;100.00
70411;BME280;57832;46.038;11.398;2022-10-10T12:55:26;97237.72;;;18.63;100.00
70411;BME280;57832;46.038;11.398;2022-10-10T12:57:57;97235.50;;;18.70;100.00
70411;BME280;57832;46.038;11.398;2022-10-10T13:00:24;97238.94;;;18.71;100.00
70411;BME280;57832;46.038;11.398;2022-10-10T13:02:56;97249.66;;;18.85;100.00
70411;BME280;57832;46.038;11.398;2022-10-10T13:05:35;97247.38;;;18.97;100.00
70411;BME280;57832;46.038;11.398;2022-10-10T13:08:11;97243.84;;;18.64;100.00
70411;BME280;57832;46.038;11.398;2022-10-10T13:10:38;97246.94;;;19.89;100.00
70411;BME280;57832;46.038;11.398;2022-10-10T13:13:18;97239.34;;;20.24;100.00
70411;BME280;57832;46.038;11.398;2022-10-10T13:15:55;97239.63;;;20.36;100.00
70411;BME280;57832;46.038;11.398;2022-10-10T13:18:41;97236.66;;;20.88;100.00
70411;BME280;57832;46.038;11.398;2022-10-10T13:21:13;97228.84;;;21.15;100.00
70411;BME280;57832;46.038;11.398;2022-10-10T13:23:46;97229.50;;;21.20;100.00
70411;BME280;57832;46.038;11.398;2022-10-10T13:26:23;97223.13;;;21.53;100.00
70411;BME280;57832;46.038;11.398;2022-10-10T13:28:53;97220.94;;;21.32;100.00
70411;BME280;57832;46.038;11.398;2022-10-10T13:31:23;97223.88;;;21.45;100.00
70411;BME280;57832;46.038;11.398;2022-10-10T13:33:49;97223.84;;;21.67;100.00
70411;BME280;57832;46.038;11.398;2022-10-10T13:36:19;97222.06;;;21.54;100.00
70411;BME280;57832;46.038;11.398;2022-10-10T13:38:47;97218.31;;;21.10;100.00
70411;BME280;57832;46.038;11.398;2022-10-10T13:41:16;97223.75;;;21.27;100.00
70411;BME280;57832;46.038;11.398;2022-10-10T13:43:43;97222.59;;;21.42;100.00
70411;BME280;57832;46.038;11.398;2022-10-10T13:46:41;97218.25;;;21.24;100.00
70411;BME280;57832;46.038;11.398;2022-10-10T13:49:21;97213.44;;;21.34;100.00
70411;BME280;57832;46.038;11.398;2022-10-10T13:51:48;97216.13;;;21.12;100.00
70411;BME280;57832;46.038;11.398;2022-10-10T13:54:42;97212.72;;;20.97;100.00
70411;BME280;57832;46.038;11.398;2022-10-10T13:57:23;97212.84;;;21.15;100.00
70411;BME280;57832;46.038;11.398;2022-10-10T14:00:00;97223.59;;;21.24;100.00
70411;BME280;57832;46.038;11.398;2022-10-10T14:02:34;97222.44;;;20.93;100.00
70411;BME280;57832;46.038;11.398;2022-10-10T14:05:11;97230.22;;;20.53;100.00
70411;BME280;57832;46.038;11.398;2022-10-10T14:07:38;97224.50;;;20.46;100.00
70411;BME280;57832;46.038;11.398;2022-10-10T14:10:07;97221.78;;;20.23;100.00
70411;BME280;57832;46.038;11.398;2022-10-10T14:12:41;97220.91;;;20.14;100.00
70411;BME280;57832;46.038;11.398;2022-10-10T14:17:59;97216.31;;;20.70;100.00
70411;BME280;57832;46.038;11.398;2022-10-10T14:20:24;97229.63;;;20.56;100.00
70411;BME280;57832;46.038;11.398;2022-10-10T14:22:50;97227.63;;;20.62;100.00
70411;BME280;57832;46.038;11.398;2022-10-10T14:25:15;97226.44;;;20.31;100.00
70411;BME280;57832;46.038;11.398;2022-10-10T14:27:41;97227.97;;;20.46;100.00
70411;BME280;57832;46.038;11.398;2022-10-10T14:30:07;97226.09;;;20.47;100.00
70411;BME280;57832;46.038;11.398;2022-10-10T14:32:33;97228.66;;;20.52;100.00
70411;BME280;57832;46.038;11.398;2022-10-10T14:34:58;97227.56;;;20.39;100.00
70411;BME280;57832;46.038;11.398;2022-10-10T14:37:25;97232.34;;;20.14;100.00
70411;BME280;57832;46.038;11.398;2022-10-10T14:39:52;97229.41;;;20.02;100.00
70411;BME280;57832;46.038;11.398;2022-10-10T14:42:19;97224.97;;;19.97;100.00
70411;BME280;57832;46.038;11.398;2022-10-10T14:44:45;97225.03;;;20.20;100.00
70411;BME280;57832;46.038;11.398;2022-10-10T14:47:16;97224.34;;;20.00;100.00
70411;BME280;57832;46.038;11.398;2022-10-10T14:49:43;97226.88;;;19.78;100.00
70411;BME280;57832;46.038;11.398;2022-10-10T14:52:09;97230.13;;;19.61;100.00